createdAt,value
2023-02-19T00:01:01.560Z,58.26
2023-02-19T00:04:12.198Z,58.08
2023-02-19T00:07:14.686Z,58.29
2023-02-19T00:10:17.279Z,58.03
2023-02-19T00:13:19.642Z,58.94
2023-02-19T00:16:25.204Z,58.61
2023-02-19T00:19:28.154Z,58.71
2023-02-19T00:22:30.797Z,58.59
2023-02-19T00:25:37.797Z,58.40
2023-02-19T00:28:40.568Z,59.44
2023-02-19T00:31:43.901Z,58.58
2023-02-19T00:34:46.569Z,58.99
2023-02-19T00:37:48.918Z,59.41
2023-02-19T00:40:51.604Z,58.25
2023-02-19T00:44:02.478Z,58.05
2023-02-19T00:47:05.131Z,58.02
2023-02-19T00:50:07.537Z,57.98
2023-02-19T00:53:10.483Z,58.07
2023-02-19T00:56:12.972Z,58.66
2023-02-19T00:59:15.623Z,59.08
2023-02-19T01:02:17.930Z,58.42
2023-02-19T01:05:20.567Z,57.90
2023-02-19T01:08:23.039Z,58.63
2023-02-19T01:11:25.986Z,58.27
2023-02-19T01:14:28.481Z,58.79
2023-02-19T01:17:31.231Z,57.90
2023-02-19T01:20:33.693Z,59.12
2023-02-19T01:23:36.629Z,58.36
2023-02-19T01:26:39.149Z,58.52
2023-02-19T01:29:42.571Z,58.28
2023-02-19T01:32:45.134Z,58.69
2023-02-19T01:35:47.836Z,58.00
2023-02-19T01:38:50.559Z,58.97
2023-02-19T01:41:53.211Z,57.92
2023-02-19T01:45:20.750Z,58.45
2023-02-19T01:48:27.473Z,58.00
2023-02-19T01:51:32.861Z,59.45
2023-02-19T01:54:40.392Z,58.49
2023-02-19T01:57:46.961Z,59.29
2023-02-19T02:00:52.281Z,59.22
2023-02-19T02:03:55.082Z,58.49
2023-02-19T02:06:59.250Z,58.50
2023-02-19T02:10:21.158Z,58.33
2023-02-19T02:13:23.970Z,59.53
2023-02-19T02:16:33.010Z,58.82
2023-02-19T02:20:03.632Z,60.09
2023-02-19T02:23:10.760Z,59.18
2023-02-19T02:26:38.826Z,58.91
2023-02-19T02:30:12.874Z,58.90
2023-02-19T02:33:28.580Z,58.87
2023-02-19T02:36:38.582Z,58.90
2023-02-19T02:39:44.679Z,59.70
2023-02-19T02:42:47.891Z,59.33
2023-02-19T02:45:51.194Z,59.59
2023-02-19T02:49:00.554Z,59.17
2023-02-19T02:52:23.623Z,59.58
2023-02-19T02:55:29.795Z,59.18
2023-02-19T02:58:34.049Z,59.84
2023-02-19T03:02:14.139Z,59.45
2023-02-19T03:05:41.517Z,59.52
2023-02-19T03:08:59.233Z,59.21
2023-02-19T03:12:24.243Z,60.41
2023-02-19T03:16:11.715Z,59.44
2023-02-19T03:19:19.380Z,60.50
2023-02-19T03:22:33.241Z,60.25
2023-02-19T03:25:56.445Z,59.88
2023-02-19T03:29:21.654Z,60.24
2023-02-19T03:32:36.630Z,60.02
2023-02-19T03:35:46.727Z,59.79
2023-02-19T03:38:56.898Z,60.39
2023-02-19T03:42:06.334Z,59.58
2023-02-19T03:45:24.193Z,59.51
2023-02-19T03:48:53.642Z,59.78
2023-02-19T03:52:23.482Z,60.21
2023-02-19T03:55:46.205Z,60.44
2023-02-19T03:58:59.218Z,60.86
2023-02-19T04:02:14.010Z,61.30
2023-02-19T04:05:21.397Z,60.43
2023-02-19T04:08:25.855Z,61.17
2023-02-19T04:11:32.208Z,60.98
2023-02-19T04:15:00.785Z,60.71
2023-02-19T04:18:08.508Z,61.30
2023-02-19T04:21:11.845Z,60.74
2023-02-19T04:24:21.817Z,60.90
2023-02-19T04:27:24.348Z,60.75
2023-02-19T04:30:27.223Z,61.43
2023-02-19T04:33:29.608Z,60.96
2023-02-19T04:36:33.374Z,60.56
2023-02-19T04:39:35.817Z,60.95
2023-02-19T04:42:38.513Z,61.12
2023-02-19T04:45:40.779Z,61.02
2023-02-19T04:48:43.420Z,60.91
2023-02-19T04:51:45.726Z,61.28
2023-02-19T04:54:49.100Z,61.55
2023-02-19T04:57:51.494Z,61.10
2023-02-19T05:00:54.282Z,61.25
2023-02-19T05:03:56.586Z,61.72
2023-02-19T05:06:59.189Z,61.49
2023-02-19T05:10:01.493Z,61.52
2023-02-19T05:13:04.096Z,61.67
2023-02-19T05:16:10.796Z,61.38
2023-02-19T05:19:13.691Z,60.87
2023-02-19T05:22:16.068Z,60.60
2023-02-19T05:25:18.748Z,60.38
2023-02-19T05:28:28.522Z,60.35
2023-02-19T05:31:33.737Z,60.63
2023-02-19T05:34:36.112Z,60.83
2023-02-19T05:37:38.744Z,61.06
2023-02-19T05:40:41.482Z,61.40
2023-02-19T05:43:46.036Z,61.91
2023-02-19T05:46:48.338Z,62.26
2023-02-19T05:49:50.989Z,62.68
2023-02-19T05:52:53.370Z,62.99
2023-02-19T05:55:55.985Z,63.31
2023-02-19T05:58:59.365Z,64.10
2023-02-19T06:02:01.916Z,64.11
2023-02-19T06:05:05.129Z,64.90
2023-02-19T06:08:07.422Z,65.16
2023-02-19T06:11:10.769Z,65.56
2023-02-19T06:14:14.570Z,65.82
2023-02-19T06:17:17.350Z,67.04
2023-02-19T06:20:19.742Z,67.22
2023-02-19T06:23:22.309Z,68.08
2023-02-19T06:26:25.233Z,69.23
2023-02-19T06:29:27.950Z,69.08
2023-02-19T06:32:30.321Z,69.18
2023-02-19T06:35:32.894Z,70.17
2023-02-19T06:38:35.634Z,70.18
2023-02-19T06:41:38.258Z,70.12
2023-02-19T06:44:43.263Z,71.08
2023-02-19T06:47:45.851Z,71.08
2023-02-19T06:50:48.246Z,70.71
2023-02-19T06:53:53.310Z,71.05
2023-02-19T06:56:58.935Z,71.45
2023-02-19T07:00:01.542Z,72.14
2023-02-19T07:03:05.492Z,72.70
2023-02-19T07:06:08.501Z,72.67
2023-02-19T07:09:11.839Z,72.80
2023-02-19T07:12:14.612Z,73.59
2023-02-19T07:15:17.149Z,74.03
2023-02-19T07:18:19.935Z,73.17
2023-02-19T07:21:22.331Z,74.59
2023-02-19T07:24:25.312Z,74.20
2023-02-19T07:27:30.886Z,73.99
2023-02-19T07:30:36.849Z,74.55
2023-02-19T07:33:39.280Z,74.52
2023-02-19T07:36:41.913Z,74.52
2023-02-19T07:39:44.283Z,74.94
2023-02-19T07:42:46.961Z,74.80
2023-02-19T07:45:49.394Z,73.72
2023-02-19T07:48:52.075Z,74.30
2023-02-19T07:51:54.358Z,73.77
2023-02-19T07:55:00.216Z,74.32
2023-02-19T07:58:04.263Z,75.07
2023-02-19T08:01:15.081Z,75.06
2023-02-19T08:04:17.873Z,74.59
2023-02-19T08:07:20.333Z,74.65
2023-02-19T08:10:47.596Z,74.94
2023-02-19T08:13:53.385Z,74.83
2023-02-19T08:16:56.207Z,74.94
2023-02-19T08:20:00.567Z,75.77
2023-02-19T08:23:03.583Z,75.31
2023-02-19T08:26:06.647Z,76.28
2023-02-19T08:29:09.292Z,76.25
2023-02-19T08:32:11.689Z,75.93
2023-02-19T08:35:14.357Z,76.64
2023-02-19T08:38:17.186Z,77.18
2023-02-19T08:41:21.259Z,78.64
2023-02-19T08:44:23.684Z,80.03
2023-02-19T08:47:26.322Z,80.38
2023-02-19T08:50:37.092Z,81.12
2023-02-19T08:53:44.743Z,81.76
2023-02-19T08:56:47.424Z,82.19
2023-02-19T08:59:50.133Z,81.70
2023-02-19T09:02:52.556Z,82.93
2023-02-19T09:06:10.029Z,82.64
2023-02-19T09:09:15.287Z,81.98
2023-02-19T09:12:18.028Z,82.12
2023-02-19T09:15:22.705Z,83.00
2023-02-19T09:18:26.161Z,82.72
2023-02-19T09:21:28.652Z,81.74
2023-02-19T09:24:34.452Z,81.77
2023-02-19T09:27:36.844Z,82.29
2023-02-19T09:30:39.618Z,82.25
2023-02-19T09:33:43.814Z,82.35
2023-02-19T09:36:49.393Z,82.04
2023-02-19T09:40:08.331Z,81.22
2023-02-19T09:43:38.546Z,80.38
2023-02-19T09:46:52.896Z,79.62
2023-02-19T09:50:07.268Z,78.74
2023-02-19T09:53:25.409Z,77.25
2023-02-19T09:56:49.565Z,76.26
2023-02-19T09:59:57.283Z,73.77
2023-02-19T10:03:11.097Z,72.81
2023-02-19T10:06:24.220Z,72.73
2023-02-19T10:09:28.978Z,72.03
2023-02-19T10:15:58.381Z,66.37
2023-02-19T10:19:01.146Z,64.16
2023-02-19T10:22:07.476Z,62.25
2023-02-19T10:25:16.729Z,61.26
2023-02-19T10:28:22.496Z,60.33
2023-02-19T10:31:26.057Z,58.78
2023-02-19T10:34:28.594Z,57.56
2023-02-19T10:37:32.203Z,56.60
2023-02-19T10:40:34.802Z,56.97
2023-02-19T10:43:42.690Z,57.41
2023-02-19T10:46:48.440Z,57.95
2023-02-19T10:49:53.275Z,58.58
2023-02-19T10:52:57.747Z,58.11
2023-02-19T10:56:26.784Z,57.30
2023-02-19T10:59:29.439Z,57.03
2023-02-19T11:02:32.270Z,56.03
2023-02-19T11:05:38.138Z,54.67
2023-02-19T11:08:43.749Z,53.18
2023-02-19T11:11:52.380Z,52.72
2023-02-19T11:14:55.464Z,51.27
2023-02-19T11:18:12.969Z,49.18
2023-02-19T11:21:28.742Z,48.21
2023-02-19T11:24:37.601Z,47.59
2023-02-19T11:28:28.201Z,46.65
2023-02-19T11:31:32.512Z,45.60
2023-02-19T11:34:35.673Z,46.09
2023-02-19T11:37:54.490Z,46.23
2023-02-19T11:41:26.059Z,45.89
2023-02-19T11:45:00.547Z,45.00
2023-02-19T11:48:25.124Z,45.20
2023-02-19T11:51:30.593Z,44.31
2023-02-19T11:54:54.616Z,43.43
2023-02-19T11:58:53.921Z,42.65
2023-02-19T12:02:11.533Z,42.05
2023-02-19T12:05:17.346Z,41.70
2023-02-19T12:08:34.944Z,42.00
2023-02-19T12:12:05.204Z,41.42
2023-02-19T12:15:25.351Z,41.28
2023-02-19T12:18:42.775Z,41.01
2023-02-19T12:22:13.315Z,40.98
2023-02-19T12:25:53.906Z,40.32
2023-02-19T12:29:18.484Z,40.51
2023-02-19T12:32:30.811Z,40.72
2023-02-19T12:35:36.849Z,40.80
2023-02-19T12:38:45.206Z,40.89
2023-02-19T12:41:59.777Z,41.01
2023-02-19T12:45:17.806Z,41.02
2023-02-19T12:48:53.496Z,40.70
2023-02-19T12:52:00.469Z,40.94
2023-02-19T12:55:19.661Z,40.60
2023-02-19T12:58:48.908Z,44.23
2023-02-19T13:02:04.827Z,46.91
2023-02-19T13:05:13.701Z,48.08
2023-02-19T13:08:22.894Z,50.63
2023-02-19T13:11:36.784Z,51.97
2023-02-19T13:15:13.715Z,53.67
2023-02-19T13:18:24.293Z,55.26
2023-02-19T13:21:50.310Z,54.06
2023-02-19T13:24:55.440Z,52.07
2023-02-19T13:28:02.923Z,52.63
2023-02-19T13:31:15.347Z,50.66
2023-02-19T13:34:31.601Z,48.72
2023-02-19T13:37:35.334Z,49.06
2023-02-19T13:40:42.373Z,48.63
2023-02-19T13:43:47.031Z,49.17
2023-02-19T13:46:50.851Z,49.62
2023-02-19T13:50:06.670Z,50.48
2023-02-19T13:53:48.031Z,50.48
2023-02-19T13:57:10.758Z,53.46
2023-02-19T14:00:58.081Z,55.51
2023-02-19T14:04:18.593Z,57.73
2023-02-19T14:07:50.345Z,58.43
2023-02-19T14:10:58.041Z,59.67
2023-02-19T14:14:06.652Z,60.04
2023-02-19T14:17:09.406Z,60.77
2023-02-19T14:20:17.858Z,62.13
2023-02-19T14:23:24.358Z,61.90
2023-02-19T14:26:27.698Z,62.26
2023-02-19T14:29:30.414Z,62.61
2023-02-19T14:32:32.776Z,62.67
2023-02-19T14:35:40.131Z,62.58
2023-02-19T14:38:48.786Z,61.30
2023-02-19T14:41:59.057Z,60.91
2023-02-19T14:45:06.475Z,60.47
2023-02-19T14:48:19.594Z,60.38
2023-02-19T14:51:28.511Z,61.23
2023-02-19T14:54:49.673Z,60.96
2023-02-19T14:57:54.546Z,61.04
2023-02-19T15:00:57.510Z,62.09
2023-02-19T15:03:59.827Z,61.24
2023-02-19T15:07:07.590Z,61.42
2023-02-19T15:10:13.229Z,62.34
2023-02-19T15:13:28.420Z,62.96
2023-02-19T15:16:32.695Z,62.44
2023-02-19T15:19:39.568Z,62.05
2023-02-19T15:22:42.076Z,62.80
2023-02-19T15:25:44.760Z,63.59
2023-02-19T15:28:47.345Z,62.83
2023-02-19T15:31:56.175Z,63.70
2023-02-19T15:35:00.458Z,63.47
2023-02-19T15:38:03.125Z,62.89
2023-02-19T15:41:05.899Z,62.83
2023-02-19T15:44:29.249Z,62.60
2023-02-19T15:48:00.674Z,62.56
2023-02-19T15:51:12.090Z,62.59
2023-02-19T15:54:38.938Z,62.93
2023-02-19T15:57:47.228Z,62.52
2023-02-19T16:00:56.498Z,62.84
2023-02-19T16:03:59.380Z,62.77
2023-02-19T16:07:03.763Z,62.97
2023-02-19T16:10:20.390Z,63.37
2023-02-19T16:13:27.972Z,63.97
2023-02-19T16:16:38.530Z,63.56
2023-02-19T16:19:43.865Z,63.53
2023-02-19T16:22:46.620Z,63.54
2023-02-19T16:26:02.463Z,63.89
2023-02-19T16:29:13.246Z,63.90
2023-02-19T16:32:17.251Z,64.36
2023-02-19T16:35:37.491Z,64.24
2023-02-19T16:38:39.879Z,65.12
2023-02-19T16:41:47.771Z,65.62
2023-02-19T16:44:50.148Z,65.56
2023-02-19T16:47:52.757Z,66.49
2023-02-19T16:50:55.870Z,67.27
2023-02-19T16:53:58.512Z,67.75
2023-02-19T16:57:00.954Z,67.64
2023-02-19T17:00:04.106Z,67.31
2023-02-19T17:03:19.808Z,67.76
2023-02-19T17:06:22.433Z,67.41
2023-02-19T17:09:24.814Z,67.17
2023-02-19T17:12:27.470Z,67.41
2023-02-19T17:15:29.814Z,67.26
2023-02-19T17:18:32.668Z,67.39
2023-02-19T17:21:34.996Z,67.43
2023-02-19T17:24:37.683Z,67.06
2023-02-19T17:27:41.451Z,67.45
2023-02-19T17:30:44.282Z,67.59
2023-02-19T17:33:47.077Z,66.68
2023-02-19T17:36:49.872Z,67.01
2023-02-19T17:39:52.267Z,67.12
2023-02-19T17:42:55.345Z,66.19
2023-02-19T17:45:58.108Z,65.94
2023-02-19T17:49:15.403Z,66.44
2023-02-19T17:52:19.793Z,66.35
2023-02-19T17:55:22.981Z,65.80
2023-02-19T17:58:25.555Z,65.46
2023-02-19T18:01:30.257Z,65.62
2023-02-19T18:04:35.563Z,65.76
2023-02-19T18:07:39.245Z,64.97
2023-02-19T18:10:41.968Z,65.88
2023-02-19T18:13:44.775Z,65.93
2023-02-19T18:16:50.246Z,65.09
2023-02-19T18:19:53.545Z,65.64
2023-02-19T18:22:57.116Z,65.06
2023-02-19T18:25:59.946Z,64.62
2023-02-19T18:29:03.026Z,65.74
2023-02-19T18:32:08.250Z,65.14
2023-02-19T18:35:11.262Z,65.50
2023-02-19T18:38:16.387Z,64.52
2023-02-19T18:41:21.240Z,64.83
2023-02-19T18:44:25.309Z,65.18
2023-02-19T18:47:28.134Z,65.44
2023-02-19T18:50:30.748Z,64.92
2023-02-19T18:53:33.626Z,64.87
2023-02-19T18:56:43.879Z,65.57
2023-02-19T18:59:46.778Z,65.39
2023-02-19T19:02:51.278Z,65.42
2023-02-19T19:05:55.202Z,65.17
2023-02-19T19:09:02.386Z,65.18
2023-02-19T19:12:14.965Z,66.38
2023-02-19T19:15:18.601Z,66.37
2023-02-19T19:18:25.211Z,66.05
2023-02-19T19:21:28.079Z,65.97
2023-02-19T19:24:31.255Z,65.51
2023-02-19T19:27:33.700Z,66.12
2023-02-19T19:30:36.790Z,66.10
2023-02-19T19:33:39.876Z,66.21
2023-02-19T19:36:43.763Z,66.62
2023-02-19T19:39:46.334Z,67.26
2023-02-19T19:42:52.294Z,66.39
2023-02-19T19:45:55.777Z,66.61
2023-02-19T19:48:58.586Z,66.87
2023-02-19T19:52:01.367Z,67.33
2023-02-19T19:55:04.860Z,67.17
2023-02-19T19:58:07.440Z,67.07
2023-02-19T20:01:10.746Z,67.02
2023-02-19T20:04:13.873Z,66.85
2023-02-19T20:07:17.232Z,66.80
2023-02-19T20:10:20.286Z,66.63
2023-02-19T20:13:24.526Z,66.93
2023-02-19T20:16:29.008Z,65.75
2023-02-19T20:19:34.358Z,65.96
2023-02-19T20:22:42.178Z,65.60
2023-02-19T20:25:44.700Z,65.35
2023-02-19T20:28:47.609Z,65.82
2023-02-19T20:31:51.530Z,65.15
2023-02-19T20:34:54.333Z,65.35
2023-02-19T20:37:56.896Z,65.51
2023-02-19T20:40:59.663Z,65.53
2023-02-19T20:44:03.423Z,66.15
2023-02-19T20:47:08.232Z,65.94
2023-02-19T20:50:11.201Z,65.79
2023-02-19T20:53:14.180Z,65.13
2023-02-19T20:56:19.269Z,64.52
2023-02-19T20:59:27.345Z,63.35
2023-02-19T21:02:31.843Z,62.71
2023-02-19T21:05:37.872Z,62.13
2023-02-19T21:08:40.432Z,60.74
2023-02-19T21:11:44.414Z,61.24
2023-02-19T21:14:47.226Z,60.55
2023-02-19T21:17:50.221Z,60.59
2023-02-19T21:20:52.779Z,61.00
2023-02-19T21:23:59.247Z,61.24
2023-02-19T21:27:03.662Z,61.17
2023-02-19T21:30:07.188Z,60.58
2023-02-19T21:33:09.705Z,61.03
2023-02-19T21:36:13.020Z,61.05
2023-02-19T21:39:19.899Z,60.69
2023-02-19T21:42:22.672Z,60.99
2023-02-19T21:45:25.274Z,60.39
2023-02-19T21:48:28.167Z,60.38
2023-02-19T21:51:41.854Z,60.11
2023-02-19T21:54:44.524Z,59.15
2023-02-19T21:57:46.840Z,57.62
2023-02-19T22:00:49.553Z,57.27
2023-02-19T22:03:52.347Z,56.75
2023-02-19T22:06:57.894Z,56.29
2023-02-19T22:10:00.677Z,55.20
2023-02-19T22:13:03.190Z,55.04
2023-02-19T22:16:06.473Z,54.54
2023-02-19T22:19:09.973Z,53.67
2023-02-19T22:22:13.179Z,54.06
2023-02-19T22:25:15.757Z,53.71
2023-02-19T22:28:18.459Z,52.96
2023-02-19T22:31:25.369Z,53.29
2023-02-19T22:34:28.447Z,51.55
2023-02-19T22:37:32.368Z,51.75
2023-02-19T22:40:35.284Z,51.65
2023-02-19T22:43:40.870Z,51.98
2023-02-19T22:46:52.978Z,51.34
2023-02-19T22:49:55.508Z,51.13
2023-02-19T22:52:58.842Z,52.22
2023-02-19T22:56:01.226Z,51.16
2023-02-19T22:59:04.333Z,50.98
2023-02-19T23:02:06.831Z,50.91
2023-02-19T23:05:12.130Z,51.02
2023-02-19T23:08:14.505Z,51.33
2023-02-19T23:11:26.948Z,50.43
2023-02-19T23:14:29.570Z,51.37
2023-02-19T23:17:32.745Z,51.05
2023-02-19T23:20:35.648Z,50.84
2023-02-19T23:23:43.902Z,51.49
2023-02-19T23:26:51.825Z,52.23
2023-02-19T23:29:55.836Z,51.09
2023-02-19T23:32:58.298Z,51.24
2023-02-19T23:36:01.307Z,51.52
2023-02-19T23:39:04.268Z,51.09
2023-02-19T23:42:06.904Z,51.06
2023-02-19T23:45:21.159Z,51.10
2023-02-19T23:48:24.003Z,50.88
2023-02-19T23:51:29.265Z,50.70
2023-02-19T23:54:35.068Z,50.23
2023-02-19T23:57:37.529Z,50.26
